createdAt,value
2023-04-13T00:01:28.230Z,8.80
2023-04-13T00:03:58.624Z,9.30
2023-04-13T00:06:29.299Z,8.70
2023-04-13T00:08:58.980Z,10.10
2023-04-13T00:11:28.487Z,7.80
2023-04-13T00:13:59.251Z,6.90
2023-04-13T00:16:29.879Z,7.60
2023-04-13T00:18:58.302Z,7.30
2023-04-13T00:21:28.181Z,7.70
2023-04-13T00:23:58.941Z,7.80
2023-04-13T00:26:27.466Z,8.50
2023-04-13T00:28:56.061Z,8.90
2023-04-13T00:31:26.973Z,7.90
2023-04-13T00:33:55.411Z,9.70
2023-04-13T00:36:25.006Z,6.30
2023-04-13T00:38:54.621Z,7.00
2023-04-13T00:41:26.319Z,7.20
2023-04-13T00:43:54.639Z,9.20
2023-04-13T00:46:24.089Z,8.70
2023-04-13T00:48:53.087Z,8.40
2023-04-13T00:51:22.136Z,8.10
2023-04-13T00:53:51.568Z,9.90
2023-04-13T00:56:23.211Z,8.70
2023-04-13T00:58:52.091Z,9.30
2023-04-13T01:01:20.334Z,7.40
2023-04-13T01:03:49.699Z,7.90
2023-04-13T01:06:42.882Z,7.60
2023-04-13T01:09:26.798Z,9.10
2023-04-13T01:12:02.910Z,13.70
2023-04-13T01:14:49.288Z,10.40
2023-04-13T01:17:23.786Z,12.90
2023-04-13T01:20:08.428Z,8.70
2023-04-13T01:22:42.850Z,29.20
2023-04-13T01:25:15.022Z,41.80
2023-04-13T01:27:51.733Z,52.30
2023-04-13T01:30:22.372Z,20.60
2023-04-13T01:32:53.402Z,19.50
2023-04-13T01:35:23.642Z,9.00
2023-04-13T01:37:53.342Z,6.90
2023-04-13T01:40:27.423Z,8.70
2023-04-13T01:42:58.181Z,8.60
2023-04-13T01:45:47.132Z,6.90
2023-04-13T01:48:43.575Z,6.50
2023-04-13T01:51:25.640Z,9.20
2023-04-13T01:54:12.000Z,8.50
2023-04-13T01:56:42.420Z,5.70
2023-04-13T01:59:11.506Z,6.90
2023-04-13T02:01:41.371Z,6.50
2023-04-13T02:04:10.434Z,6.10
2023-04-13T02:06:42.486Z,6.50
2023-04-13T02:09:12.115Z,7.90
2023-04-13T02:11:40.354Z,6.90
2023-04-13T02:14:09.863Z,7.10
2023-04-13T02:16:39.200Z,6.60
2023-04-13T02:19:07.756Z,7.70
2023-04-13T02:21:36.480Z,8.00
2023-04-13T02:24:05.954Z,7.50
2023-04-13T02:26:34.272Z,7.40
2023-04-13T02:29:02.613Z,8.20
2023-04-13T02:31:32.148Z,7.50
2023-04-13T02:34:01.254Z,14.50
2023-04-13T02:36:30.827Z,23.90
2023-04-13T02:39:02.767Z,26.70
2023-04-13T02:41:34.395Z,19.20
2023-04-13T02:44:03.636Z,28.60
2023-04-13T02:46:39.254Z,11.40
2023-04-13T02:49:16.986Z,10.50
2023-04-13T02:51:55.101Z,10.50
2023-04-13T02:54:30.786Z,15.10
2023-04-13T02:57:01.079Z,9.30
2023-04-13T02:59:29.982Z,8.30
2023-04-13T03:02:00.224Z,7.20
2023-04-13T03:04:29.424Z,8.00
2023-04-13T03:06:58.799Z,8.40
2023-04-13T03:09:29.266Z,7.80
2023-04-13T03:11:57.909Z,7.60
2023-04-13T03:14:30.264Z,7.70
2023-04-13T03:17:04.842Z,9.90
2023-04-13T03:19:38.620Z,9.90
2023-04-13T03:22:07.099Z,7.90
2023-04-13T03:24:37.873Z,9.00
2023-04-13T03:27:08.784Z,5.80
2023-04-13T03:29:41.868Z,6.30
2023-04-13T03:32:11.890Z,7.50
2023-04-13T03:34:44.400Z,9.20
2023-04-13T03:37:14.391Z,15.10
2023-04-13T03:39:42.815Z,16.80
2023-04-13T03:42:13.606Z,44.80
2023-04-13T03:44:46.695Z,20.30
2023-04-13T03:47:15.935Z,16.80
2023-04-13T03:49:44.171Z,12.30
2023-04-13T03:52:12.759Z,12.50
2023-04-13T03:54:42.857Z,9.90
2023-04-13T03:57:11.368Z,10.10
2023-04-13T03:59:39.744Z,11.50
2023-04-13T04:02:09.468Z,11.00
2023-04-13T04:04:41.139Z,13.60
2023-04-13T04:07:09.526Z,11.40
2023-04-13T04:09:39.106Z,11.00
2023-04-13T04:12:08.207Z,10.30
2023-04-13T04:14:40.832Z,14.20
2023-04-13T04:17:15.621Z,11.50
2023-04-13T04:19:44.610Z,14.90
2023-04-13T04:22:14.249Z,15.50
2023-04-13T04:24:43.010Z,12.50
2023-04-13T04:27:14.541Z,15.80
2023-04-13T04:29:49.234Z,21.90
2023-04-13T04:32:24.299Z,146.50
2023-04-13T04:34:53.532Z,148.60
2023-04-13T04:37:23.288Z,62.90
2023-04-13T04:40:13.171Z,67.60
2023-04-13T04:42:42.874Z,25.80
2023-04-13T04:45:18.443Z,13.50
2023-04-13T04:47:49.178Z,18.50
2023-04-13T04:50:24.465Z,31.10
2023-04-13T04:52:57.288Z,41.50
2023-04-13T04:55:26.142Z,51.80
2023-04-13T04:57:54.624Z,30.90
2023-04-13T05:00:26.529Z,13.20
2023-04-13T05:03:15.171Z,12.30
2023-04-13T05:05:47.628Z,26.90
2023-04-13T05:08:21.120Z,13.10
2023-04-13T05:10:50.344Z,12.70
2023-04-13T05:13:19.654Z,21.20
2023-04-13T05:15:56.290Z,25.40
2023-04-13T05:18:26.011Z,33.40
2023-04-13T05:20:56.583Z,30.70
2023-04-13T05:23:25.339Z,19.90
2023-04-13T05:25:58.733Z,16.50
2023-04-13T05:28:27.664Z,13.50
2023-04-13T05:31:03.635Z,14.30
2023-04-13T05:33:32.576Z,12.70
2023-04-13T05:36:01.513Z,12.80
2023-04-13T05:38:30.056Z,10.40
2023-04-13T05:40:58.873Z,33.30
2023-04-13T05:43:27.369Z,10.60
2023-04-13T05:45:56.214Z,14.10
2023-04-13T05:48:24.707Z,28.20
2023-04-13T05:50:58.683Z,32.20
2023-04-13T05:53:29.052Z,17.10
2023-04-13T05:55:58.751Z,12.00
2023-04-13T05:58:27.324Z,8.40
2023-04-13T06:01:05.656Z,9.80
2023-04-13T06:03:34.945Z,13.00
2023-04-13T06:06:04.930Z,16.80
2023-04-13T06:08:33.256Z,19.20
2023-04-13T06:11:01.923Z,19.90
2023-04-13T06:13:31.782Z,13.80
2023-04-13T06:16:00.228Z,13.20
2023-04-13T06:18:29.364Z,10.50
2023-04-13T06:20:59.449Z,8.90
2023-04-13T06:23:28.034Z,19.20
2023-04-13T06:25:59.028Z,17.60
2023-04-13T06:28:49.970Z,8.50
2023-04-13T06:31:19.373Z,10.60
2023-04-13T06:33:49.824Z,20.00
2023-04-13T06:36:22.683Z,14.90
2023-04-13T06:38:52.343Z,9.00
2023-04-13T06:41:21.213Z,7.00
2023-04-13T06:43:49.560Z,6.30
2023-04-13T06:46:29.827Z,10.10
2023-04-13T06:49:02.777Z,7.40
2023-04-13T06:51:32.355Z,7.20
2023-04-13T06:54:01.797Z,6.60
2023-04-13T06:56:30.146Z,7.70
2023-04-13T06:59:02.707Z,9.60
2023-04-13T07:01:33.090Z,8.20
2023-04-13T07:04:02.982Z,7.90
2023-04-13T07:06:33.398Z,10.00
2023-04-13T07:09:02.303Z,12.00
2023-04-13T07:11:31.488Z,7.50
2023-04-13T07:13:59.963Z,6.80
2023-04-13T07:16:28.462Z,7.10
2023-04-13T07:18:57.182Z,7.40
2023-04-13T07:21:27.498Z,10.10
2023-04-13T07:24:02.298Z,7.90
2023-04-13T07:26:31.187Z,7.70
2023-04-13T07:29:00.148Z,8.00
2023-04-13T07:31:31.588Z,8.80
2023-04-13T07:34:00.477Z,9.30
2023-04-13T07:36:33.539Z,10.60
2023-04-13T07:39:09.104Z,9.40
2023-04-13T07:41:39.085Z,8.40
2023-04-13T07:44:08.290Z,9.80
2023-04-13T07:46:38.766Z,10.40
2023-04-13T07:49:07.623Z,15.00
2023-04-13T07:51:36.375Z,9.70
2023-04-13T07:54:04.878Z,11.80
2023-04-13T07:56:33.866Z,7.80
2023-04-13T07:59:02.314Z,11.20
2023-04-13T08:01:31.658Z,10.30
2023-04-13T08:04:02.602Z,9.30
2023-04-13T08:06:32.438Z,10.20
2023-04-13T08:09:02.220Z,8.20
2023-04-13T08:11:32.037Z,9.40
2023-04-13T08:14:06.197Z,8.90
2023-04-13T08:16:34.976Z,9.50
2023-04-13T08:19:05.775Z,9.80
2023-04-13T08:21:38.748Z,7.40
2023-04-13T08:24:07.665Z,10.00
2023-04-13T08:26:35.940Z,11.50
2023-04-13T08:29:04.251Z,8.30
2023-04-13T08:31:32.825Z,8.90
2023-04-13T08:34:04.795Z,8.50
2023-04-13T08:36:33.680Z,6.50
2023-04-13T08:39:10.033Z,6.90
2023-04-13T08:41:44.455Z,8.50
2023-04-13T08:44:14.918Z,7.40
2023-04-13T08:46:47.122Z,8.70
2023-04-13T08:49:18.503Z,14.00
2023-04-13T08:52:09.109Z,11.50
2023-04-13T08:54:38.247Z,7.10
2023-04-13T08:57:12.330Z,8.70
2023-04-13T08:59:43.101Z,9.20
2023-04-13T09:02:12.333Z,8.10
2023-04-13T09:04:52.652Z,6.80
2023-04-13T09:07:26.764Z,8.30
2023-04-13T09:09:59.840Z,8.40
2023-04-13T09:12:29.874Z,7.40
2023-04-13T09:14:59.376Z,7.90
2023-04-13T09:17:32.534Z,7.80
2023-04-13T09:20:22.814Z,7.40
2023-04-13T09:22:52.118Z,7.40
2023-04-13T09:25:27.761Z,7.90
2023-04-13T09:27:57.529Z,8.20
2023-04-13T09:30:27.739Z,8.70
2023-04-13T09:33:10.768Z,18.90
2023-04-13T09:35:40.053Z,7.50
2023-04-13T09:38:09.178Z,7.20
2023-04-13T09:40:48.290Z,8.20
2023-04-13T09:43:17.306Z,6.40
2023-04-13T09:45:46.202Z,6.10
2023-04-13T09:48:22.726Z,6.80
2023-04-13T09:51:02.255Z,6.50
2023-04-13T09:53:43.705Z,6.20
2023-04-13T09:56:12.270Z,5.80
2023-04-13T09:58:45.910Z,8.30
2023-04-13T10:03:45.981Z,5.70
2023-04-13T10:06:14.781Z,5.60
2023-04-13T10:08:43.320Z,6.70
2023-04-13T10:11:14.595Z,11.80
2023-04-13T10:14:09.169Z,7.40
2023-04-13T10:16:40.308Z,6.90
2023-04-13T10:19:18.489Z,6.20
2023-04-13T10:21:51.834Z,7.00
2023-04-13T10:24:21.690Z,7.60
2023-04-13T10:26:55.389Z,13.60
2023-04-13T10:32:04.172Z,5.90
2023-04-13T10:34:34.968Z,10.80
2023-04-13T10:37:07.550Z,6.20
2023-04-13T10:39:37.779Z,5.60
2023-04-13T10:42:12.893Z,8.20
2023-04-13T10:44:44.981Z,6.70
2023-04-13T10:47:15.549Z,5.00
2023-04-13T10:49:46.818Z,7.70
2023-04-13T10:52:16.076Z,6.70
2023-04-13T10:54:45.392Z,5.40
2023-04-13T10:57:13.847Z,6.10
2023-04-13T10:59:56.327Z,5.10
2023-04-13T11:02:32.516Z,5.00
2023-04-13T11:05:01.591Z,5.50
2023-04-13T11:07:30.330Z,5.40
2023-04-13T11:12:30.436Z,9.10
2023-04-13T11:14:59.651Z,6.60
2023-04-13T11:17:28.527Z,6.20
2023-04-13T11:19:57.872Z,6.60
2023-04-13T11:22:29.114Z,6.30
2023-04-13T11:25:16.539Z,5.60
2023-04-13T11:27:44.906Z,5.80
2023-04-13T11:30:14.510Z,10.60
2023-04-13T11:32:43.588Z,5.90
2023-04-13T11:35:15.134Z,4.30
2023-04-13T11:37:49.727Z,8.00
2023-04-13T11:40:26.348Z,7.10
2023-04-13T11:42:58.991Z,8.70
2023-04-13T11:45:30.707Z,6.40
2023-04-13T11:48:00.125Z,4.90
2023-04-13T11:50:29.508Z,4.60
2023-04-13T11:52:58.706Z,4.60
2023-04-13T11:55:27.371Z,6.70
2023-04-13T11:57:55.981Z,4.70
2023-04-13T12:00:26.504Z,4.60
2023-04-13T12:05:32.880Z,5.70
2023-04-13T12:08:04.600Z,8.90
2023-04-13T12:18:28.390Z,9.50
2023-04-13T12:21:03.100Z,6.50
2023-04-13T12:23:31.475Z,5.70
2023-04-13T12:26:25.966Z,6.70
2023-04-13T12:28:59.249Z,12.20
2023-04-13T12:31:36.704Z,4.80
2023-04-13T12:34:08.510Z,5.40
2023-04-13T12:36:37.235Z,5.70
2023-04-13T12:39:06.980Z,7.70
2023-04-13T12:41:35.428Z,6.00
2023-04-13T12:44:03.693Z,5.10
2023-04-13T12:46:32.692Z,7.20
2023-04-13T12:49:01.805Z,6.70
2023-04-13T12:51:31.675Z,5.70
2023-04-13T12:53:59.896Z,5.40
2023-04-13T12:56:28.140Z,7.60
2023-04-13T12:58:56.467Z,7.40
2023-04-13T13:01:24.940Z,10.40
2023-04-13T13:03:53.546Z,9.50
2023-04-13T13:06:21.906Z,7.50
2023-04-13T13:08:51.618Z,9.90
2023-04-13T13:11:19.919Z,10.80
2023-04-13T13:13:48.505Z,6.30
2023-04-13T13:16:16.987Z,5.70
2023-04-13T13:18:50.848Z,8.70
2023-04-13T13:21:20.268Z,6.50
2023-04-13T13:23:48.579Z,6.30
2023-04-13T13:28:48.379Z,5.60
2023-04-13T13:31:16.785Z,5.70
2023-04-13T13:33:45.349Z,5.40
2023-04-13T13:36:14.853Z,4.90
2023-04-13T13:38:43.958Z,4.70
2023-04-13T13:41:12.245Z,4.50
2023-04-13T13:43:40.531Z,6.10
2023-04-13T13:46:09.091Z,6.00
2023-04-13T13:48:38.495Z,6.40
2023-04-13T13:51:28.500Z,5.80
2023-04-13T13:53:57.717Z,6.90
2023-04-13T13:56:26.283Z,5.40
2023-04-13T13:58:54.961Z,5.50
2023-04-13T14:01:23.150Z,5.60
2023-04-13T14:03:52.222Z,6.10
2023-04-13T14:06:20.716Z,12.50
2023-04-13T14:08:48.890Z,5.80
2023-04-13T14:11:17.167Z,5.90
2023-04-13T14:13:45.679Z,6.50
2023-04-13T14:16:13.757Z,5.60
2023-04-13T14:18:42.205Z,7.40
2023-04-13T14:21:11.304Z,7.80
2023-04-13T14:23:40.615Z,6.40
2023-04-13T14:26:08.813Z,6.90
2023-04-13T14:28:37.073Z,5.80
2023-04-13T14:31:05.847Z,7.10
2023-04-13T14:33:34.363Z,6.80
2023-04-13T14:36:03.027Z,7.20
2023-04-13T14:38:31.321Z,6.10
2023-04-13T14:40:59.679Z,6.80
2023-04-13T14:43:28.058Z,9.40
2023-04-13T14:45:56.750Z,6.30
2023-04-13T14:48:25.444Z,6.40
2023-04-13T14:50:53.927Z,7.60
2023-04-13T14:53:22.203Z,9.50
2023-04-13T14:55:50.542Z,12.00
2023-04-13T14:58:19.072Z,8.40
2023-04-13T15:00:47.341Z,9.10
2023-04-13T15:03:16.157Z,8.30
2023-04-13T15:05:50.099Z,26.60
2023-04-13T15:08:19.955Z,26.20
2023-04-13T15:10:48.875Z,9.80
2023-04-13T15:13:17.129Z,37.50
2023-04-13T15:15:48.220Z,20.40
2023-04-13T15:18:16.682Z,17.40
2023-04-13T15:20:45.026Z,10.40
2023-04-13T15:23:13.333Z,13.90
2023-04-13T15:25:42.206Z,13.80
2023-04-13T15:28:10.739Z,16.00
2023-04-13T15:30:40.346Z,13.60
2023-04-13T15:33:08.848Z,20.40
2023-04-13T15:35:37.306Z,10.10
2023-04-13T15:38:05.847Z,16.80
2023-04-13T15:40:34.184Z,19.60
2023-04-13T15:43:04.076Z,15.40
2023-04-13T15:45:32.818Z,11.60
2023-04-13T15:48:02.015Z,34.40
2023-04-13T15:50:30.524Z,15.60
2023-04-13T15:52:58.734Z,13.20
2023-04-13T15:55:27.502Z,12.30
2023-04-13T15:57:57.418Z,11.20
2023-04-13T16:00:26.499Z,14.70
2023-04-13T16:02:56.343Z,18.00
2023-04-13T16:05:25.053Z,12.80
2023-04-13T16:07:53.290Z,15.60
2023-04-13T16:10:21.774Z,15.10
2023-04-13T16:12:50.215Z,11.30
2023-04-13T16:15:19.605Z,11.80
2023-04-13T16:17:48.593Z,11.50
2023-04-13T16:20:21.359Z,15.90
2023-04-13T16:22:51.980Z,13.20
2023-04-13T16:25:20.616Z,14.50
2023-04-13T16:27:48.860Z,19.50
2023-04-13T16:30:21.040Z,22.20
2023-04-13T16:32:50.777Z,18.70
2023-04-13T16:35:19.398Z,24.20
2023-04-13T16:37:47.771Z,31.90
2023-04-13T16:40:16.906Z,33.90
2023-04-13T16:42:46.217Z,33.10
2023-04-13T16:45:15.282Z,25.20
2023-04-13T16:47:44.199Z,22.90
2023-04-13T16:50:13.518Z,27.60
2023-04-13T16:52:42.411Z,46.50
2023-04-13T16:55:15.074Z,23.50
2023-04-13T16:57:43.622Z,22.20
2023-04-13T17:00:12.759Z,29.20
2023-04-13T17:02:42.782Z,41.00
2023-04-13T17:05:12.830Z,45.60
2023-04-13T17:07:43.747Z,41.80
2023-04-13T17:10:13.726Z,37.80
2023-04-13T17:12:42.099Z,61.90
2023-04-13T17:15:11.101Z,35.40
2023-04-13T17:17:39.339Z,27.30
2023-04-13T17:20:09.554Z,35.80
2023-04-13T17:22:38.188Z,35.20
2023-04-13T17:25:07.251Z,49.90
2023-04-13T17:27:35.603Z,39.90
2023-04-13T17:30:04.161Z,26.80
2023-04-13T17:32:32.947Z,22.30
2023-04-13T17:35:01.204Z,22.70
2023-04-13T17:37:29.893Z,32.00
2023-04-13T17:39:58.194Z,390.60
2023-04-13T17:42:26.859Z,86.30
2023-04-13T17:44:55.302Z,99.80
2023-04-13T17:47:26.456Z,68.40
2023-04-13T17:49:54.973Z,65.50
2023-04-13T17:52:23.276Z,51.80
2023-04-13T17:54:51.737Z,58.80
2023-04-13T17:57:19.777Z,67.70
2023-04-13T17:59:47.898Z,69.60
2023-04-13T18:02:16.245Z,64.00
2023-04-13T18:04:44.664Z,44.60
2023-04-13T18:07:13.126Z,41.90
2023-04-13T18:09:41.623Z,44.40
2023-04-13T18:12:09.812Z,47.30
2023-04-13T18:14:38.064Z,39.90
2023-04-13T18:17:06.894Z,34.40
2023-04-13T18:19:35.457Z,39.80
2023-04-13T18:22:03.997Z,38.20
2023-04-13T18:24:32.199Z,34.80
2023-04-13T18:27:00.384Z,38.90
2023-04-13T18:29:28.604Z,35.80
2023-04-13T18:31:57.169Z,38.80
2023-04-13T18:34:25.658Z,43.70
2023-04-13T18:36:54.005Z,46.30
2023-04-13T18:39:22.796Z,48.80
2023-04-13T18:41:51.299Z,55.20
2023-04-13T18:44:19.654Z,49.10
2023-04-13T18:46:47.850Z,60.30
2023-04-13T18:49:16.935Z,46.30
2023-04-13T18:51:45.206Z,48.00
2023-04-13T18:54:13.397Z,45.70
2023-04-13T18:56:41.763Z,50.50
2023-04-13T18:59:10.148Z,75.00
2023-04-13T19:01:38.598Z,65.90
2023-04-13T19:04:07.390Z,75.00
2023-04-13T19:06:37.145Z,92.60
2023-04-13T19:09:05.515Z,62.00
2023-04-13T19:11:54.188Z,50.80
2023-04-13T19:14:22.440Z,40.80
2023-04-13T19:16:52.795Z,47.90
2023-04-13T19:19:22.275Z,47.50
2023-04-13T19:21:54.352Z,68.40
2023-04-13T19:24:23.357Z,60.60
2023-04-13T19:26:51.722Z,55.90
2023-04-13T19:29:21.271Z,50.50
2023-04-13T19:31:52.553Z,95.00
2023-04-13T19:34:20.759Z,71.10
2023-04-13T19:36:49.159Z,60.40
2023-04-13T19:39:17.627Z,60.10
2023-04-13T19:41:45.860Z,58.20
2023-04-13T19:44:16.233Z,82.10
2023-04-13T19:46:44.819Z,52.10
2023-04-13T19:49:14.002Z,43.60
2023-04-13T19:51:42.137Z,59.60
2023-04-13T19:54:10.662Z,75.20
2023-04-13T19:56:38.873Z,61.80
2023-04-13T19:59:07.234Z,62.00
2023-04-13T20:01:35.782Z,80.00
2023-04-13T20:04:05.417Z,70.80
2023-04-13T20:06:36.478Z,64.10
2023-04-13T20:09:08.866Z,66.20
2023-04-13T20:11:37.212Z,63.60
2023-04-13T20:14:06.037Z,71.20
2023-04-13T20:16:35.744Z,66.70
2023-04-13T20:19:09.770Z,57.30
2023-04-13T20:24:06.626Z,57.00
2023-04-13T20:26:34.969Z,50.80
2023-04-13T20:29:04.563Z,52.60
2023-04-13T20:31:33.858Z,49.00
2023-04-13T20:34:03.913Z,38.70
2023-04-13T20:36:32.209Z,46.00
2023-04-13T20:39:00.730Z,39.50
2023-04-13T20:41:32.282Z,38.40
2023-04-13T20:44:01.149Z,38.20
2023-04-13T20:46:34.741Z,30.70
2023-04-13T20:51:34.971Z,28.00
2023-04-13T20:54:05.712Z,29.60
2023-04-13T20:56:33.934Z,35.20
2023-04-13T20:59:02.685Z,43.10
2023-04-13T21:01:31.904Z,44.70
2023-04-13T21:04:00.748Z,47.70
2023-04-13T21:06:30.174Z,31.10
2023-04-13T21:08:59.186Z,28.70
2023-04-13T21:11:28.018Z,20.60
2023-04-13T21:13:56.426Z,29.30
2023-04-13T21:16:26.050Z,27.80
2023-04-13T21:18:54.725Z,37.00
2023-04-13T21:21:24.944Z,38.70
2023-04-13T21:23:54.650Z,36.20
2023-04-13T21:26:22.968Z,43.40
2023-04-13T21:28:51.280Z,41.10
2023-04-13T21:31:19.950Z,36.40
2023-04-13T21:33:48.793Z,32.30
2023-04-13T21:38:48.439Z,40.50
2023-04-13T21:41:21.301Z,42.10
2023-04-13T21:43:49.515Z,40.20
2023-04-13T21:46:18.695Z,39.10
2023-04-13T21:48:46.926Z,34.30
2023-04-13T21:51:15.348Z,39.50
2023-04-13T21:53:43.923Z,37.80
2023-04-13T21:56:12.126Z,36.10
2023-04-13T21:58:45.140Z,37.10
2023-04-13T22:01:14.658Z,29.00
2023-04-13T22:03:46.941Z,28.90
2023-04-13T22:06:15.655Z,36.50
2023-04-13T22:08:44.118Z,33.10
2023-04-13T22:11:12.331Z,35.50
2023-04-13T22:13:44.179Z,28.70
2023-04-13T22:16:13.078Z,23.30
2023-04-13T22:18:41.984Z,18.50
2023-04-13T22:21:10.242Z,18.10
2023-04-13T22:23:38.652Z,20.10
2023-04-13T22:26:07.010Z,25.90
2023-04-13T22:28:36.000Z,26.50
2023-04-13T22:31:12.217Z,29.00
2023-04-13T22:33:40.873Z,24.60
2023-04-13T22:36:20.662Z,28.00
2023-04-13T22:38:49.947Z,33.30
2023-04-13T22:41:18.487Z,33.40
2023-04-13T22:43:46.763Z,30.50
2023-04-13T22:46:14.962Z,28.00
2023-04-13T22:48:43.217Z,23.90
2023-04-13T22:51:11.839Z,28.50
2023-04-13T22:53:40.082Z,28.80
2023-04-13T22:56:08.625Z,26.10
2023-04-13T22:58:36.763Z,27.00
2023-04-13T23:01:05.218Z,27.80
2023-04-13T23:03:33.646Z,26.40
2023-04-13T23:06:04.807Z,25.80
2023-04-13T23:08:33.020Z,22.40
2023-04-13T23:11:11.043Z,24.50
2023-04-13T23:13:40.248Z,31.40
2023-04-13T23:16:08.524Z,33.70
2023-04-13T23:18:37.033Z,35.10
2023-04-13T23:21:10.747Z,37.10
2023-04-13T23:26:07.936Z,34.90
2023-04-13T23:28:36.142Z,27.00
2023-04-13T23:31:08.578Z,29.40
2023-04-13T23:33:37.000Z,30.70
2023-04-13T23:36:06.213Z,30.00
2023-04-13T23:38:35.520Z,31.30
2023-04-13T23:41:03.797Z,32.30
2023-04-13T23:43:32.683Z,41.60
2023-04-13T23:46:01.131Z,41.00
2023-04-13T23:48:29.447Z,40.80
2023-04-13T23:50:57.819Z,49.60
2023-04-13T23:53:25.896Z,42.30
2023-04-13T23:55:54.071Z,51.20
2023-04-13T23:58:22.385Z,46.00
